Informational Postings
Notices
Non-Critical
TSP NameTSP DUNSPost DatePost Time
KERN RIVER GAS TRANSMISSION COMPANY 621617372 10/20/2020 01:36:29

Notice TypePosted
Date/Time
Notice Effective
Date/Time
Notice End
Date/Time
Notice
Identifier
SubjectResponse
Date/Time
Notice
Status
Prior
Notice
Identifier
 Other10/18/2020 17:0910/18/2020 17:0910/19/2020 17:0920200547 SoCalGas Posts Notice  N/A 1 
 Other10/17/2020 17:0810/17/2020 17:0810/18/2020 17:0820200546 SoCalGas Posts Notice  N/A 1 
 Other10/13/2020 09:2210/13/2020 09:2210/14/2020 09:2220200545 Mojave Pipeline Company Posts Notice  N/A 1 
 Other10/11/2020 21:2410/11/2020 21:2410/12/2020 21:2420200544 SoCalGas Posts Notice  N/A 1 
 Maint10/11/2020 20:4310/11/2020 20:4310/15/2020 09:0020200543 Kern River - Milford Compressor Station Controls Upgrade Completed Early  N/A 1 
 Other10/11/2020 12:0910/11/2020 12:0910/12/2020 12:0920200542 Mojave Pipeline Company Posts Notice  N/A 1 
 Other10/10/2020 17:1210/10/2020 17:1210/11/2020 17:1220200541 SoCalGas Posts Notice  N/A 1 
 Other10/08/2020 21:1710/08/2020 21:1710/09/2020 21:1720200540 SoCalGas Posts Notice  N/A 1 
 Other10/08/2020 17:2210/08/2020 17:2210/09/2020 17:2220200539 SoCalGas Posts Notice  N/A 1 
 Other10/08/2020 10:2510/08/2020 10:2510/09/2020 10:2520200537 PG&E Posts Notice  N/A 1 
 Other10/07/2020 17:1710/07/2020 17:1710/08/2020 17:1720200536 SoCalGas Posts Notice  N/A 1 
 Cust Srvc10/07/2020 14:4010/07/2020 14:4010/14/2020 09:0020200535 Kern River - September 2020 Final Allocation Reports  N/A 1 
 Maint10/07/2020 11:5710/07/2020 11:5711/06/2020 11:5720200534 Kern River - Update to Maintenance Schedule  N/A 2 20200434
 Other10/07/2020 08:4610/07/2020 08:4610/08/2020 08:4620200533 Southwest Gas Posts Notice  N/A 1 
 Other10/06/2020 21:2610/06/2020 21:2610/07/2020 21:2620200531 SoCalGas Posts Notice  N/A 1 
 Other10/05/2020 18:3310/05/2020 18:3310/06/2020 18:3320200530 Mojave Pipeline Posts Notice  N/A 1 
 Other10/05/2020 14:3310/05/2020 14:3310/06/2020 14:3320200529 Southwest Gas Posts Notice  N/A 1 
 Other10/05/2020 09:5710/05/2020 09:5710/06/2020 09:5720200527 Southwest Gas Posts Notice  N/A 1 
 Other10/04/2020 20:4710/04/2020 20:4710/05/2020 20:4720200525 Kern River - SoCalGas Needles/Topock Maintenance  N/A 1 
 Other10/03/2020 19:0410/03/2020 19:0410/04/2020 19:0420200523 SoCal Gas Posts Notice  N/A 1 
 Other10/03/2020 17:3110/03/2020 17:3110/04/2020 17:3120200522 SoCal Gas Posts Notice  N/A 1 
 Other10/02/2020 21:1610/02/2020 21:1610/03/2020 21:1620200521 SoCalGas Posts Notice  N/A 1 
 Other10/02/2020 17:1310/02/2020 17:1310/03/2020 17:1320200520 SoCalGas Posts Notice  N/A 1 
 Other10/02/2020 10:2410/02/2020 10:2410/03/2020 10:2420200519 Northwest Pipeline Posts Notice  N/A 1 
 Other10/02/2020 09:2010/02/2020 09:2010/03/2020 09:2020200518 Southwest Gas Posts Notice  N/A 1 
 Other10/02/2020 08:4610/02/2020 08:4610/03/2020 08:4620200517 PG&E Posts Notice  N/A 1 
 Cust Srvc10/01/2020 15:0110/01/2020 15:0110/07/2020 21:0020200515 Kern River - September 2020 Preliminary Allocation Reports  N/A 1 
 Other10/01/2020 13:0710/01/2020 13:0710/02/2020 13:0720200514 Southwest Gas Posts Notice  N/A 1 
 News10/01/2020 11:5410/01/2020 11:5410/08/2020 11:5420200511 New Tariff Filing, Docket No. RP21-10  N/A 1 
 Other09/30/2020 17:4609/30/2020 17:4610/01/2020 17:4620200510 SoCal Gas Posts Notice  N/A 1 
 News09/30/2020 11:1809/30/2020 11:1810/07/2020 11:1820200507 New Tariff Filings, Docket Nos. RP20-1247 & RP20-1248  N/A 1 
 Other09/30/2020 09:0309/30/2020 09:0310/01/2020 09:0320200506 PG&E Posts Notice  N/A 1 
 Other09/29/2020 15:1309/29/2020 15:1309/30/2020 15:1320200505 CIG Posts Notice  N/A 1 
 Other09/29/2020 09:0109/29/2020 09:0109/30/2020 09:0120200504 Northwest Pipeline Posts Notice  N/A 1 
 Other09/29/2020 08:4909/29/2020 08:4909/30/2020 08:4920200503 Mojave Pipeline Maintenance  N/A 1 
 Other09/29/2020 08:3409/29/2020 08:3409/30/2020 08:3420200502 Southwest Gas Posts Notice  N/A 1 
 Other09/28/2020 21:2609/28/2020 21:2609/29/2020 21:2620200500 SoCalGas Posts Notice  N/A 1 
 Other09/28/2020 09:3509/28/2020 09:3509/29/2020 09:3520200498 Northwest Pipeline Posts Notice  N/A 1 
 Other09/27/2020 17:4509/27/2020 17:4509/28/2020 17:4520200497 SoCalGas Posts Notice  N/A 1 
 Other09/26/2020 21:2609/26/2020 21:2609/27/2020 21:2620200496 SoCalGas Posts Notice  N/A 1 
 Other09/26/2020 17:1009/26/2020 17:1009/27/2020 17:1020200494 SoCalGas Posts Notice  N/A 1 
 Other09/26/2020 08:3709/26/2020 08:3709/27/2020 08:3720200493 Southwest Gas Posts Notice  N/A 1 
 Other09/25/2020 21:2309/25/2020 21:2309/26/2020 21:2320200491 SoCalGas Posts Notice  N/A 1 
 Other09/25/2020 17:1709/25/2020 17:1709/26/2020 17:1720200490 SoCalGas Posts Notice  N/A 1 
 Other09/25/2020 16:2109/25/2020 16:2109/26/2020 16:2120200489 Southwest Gas Posts Notice  N/A 1 
 Other09/24/2020 21:2809/24/2020 21:2809/25/2020 21:2820200487 SoCal Gas Posts Notice  N/A 1 
 Other09/24/2020 17:1709/24/2020 17:1709/25/2020 17:1720200486 SoCal Gas Posts Notice  N/A 1 
 Other09/24/2020 11:2109/24/2020 11:2109/25/2020 11:2120200485 Southwest Gas Posts Notice  N/A 1 
 Other09/23/2020 21:4109/23/2020 21:4109/24/2020 21:4120200484 SoCalGas Posts Notice  N/A 1 
 Other09/23/2020 17:1609/23/2020 17:1609/24/2020 17:1620200483 SoCalGas Posts Notice  N/A 1 
 Other09/23/2020 17:0309/23/2020 17:0309/24/2020 17:0320200482 Northwest Pipeline Posts Notice  N/A 1 
 Other09/22/2020 12:2709/22/2020 12:2709/23/2020 12:2720200480 Dominion Energy Overthrust Pipeline Posts Notice  N/A 1 
 Other09/21/2020 21:1409/21/2020 21:1409/22/2020 21:1420200479 SoCal Gas Posts Notice  N/A 1 
 Other09/19/2020 21:2809/19/2020 21:2809/20/2020 21:2820200477 SoCalGas Posts Notice  N/A 1 
 Other09/19/2020 18:1309/19/2020 18:1309/20/2020 18:1320200476 SoCalGas Posts Notice  N/A 1 
 Other09/18/2020 21:2909/18/2020 21:2909/19/2020 21:2920200475 SoCalGas Posts Notice  N/A 1 
 Other09/18/2020 17:4509/18/2020 17:4509/19/2020 17:4520200474 SoCalGas Posts Notice  N/A 1 
 Rates - Chgs09/18/2020 15:4609/18/2020 15:4610/01/2020 09:0020200472 Kern River - October 2020 Compressor Fuel and L&U  N/A 1 
 Rates - Chgs09/17/2020 12:5209/17/2020 12:5210/31/2020 12:5220200470 Kern River - ACA Surcharge Rate  N/A 1 
 Other09/16/2020 16:0509/16/2020 16:0509/17/2020 16:0520200469 Northwest Pipeline Posts Notice  N/A 1 
 Other09/15/2020 17:4409/15/2020 17:4409/16/2020 17:4420200468 SoCalGas Posts Notice  N/A 1 
 Other09/11/2020 08:2209/11/2020 08:2209/12/2020 08:2220200467 PG&E Posts Notice  N/A 1 
 Other09/10/2020 17:3009/10/2020 17:3009/11/2020 17:3020200466 SoCal Gas Posts Notice  N/A 1 
 Other09/10/2020 09:5409/10/2020 09:5409/11/2020 09:5420200465 PG&E Posts Notice  N/A 1 
 Other09/10/2020 07:4109/10/2020 07:4109/11/2020 07:4120200464 SoCal Gas Posts Notice  N/A 1 
 Other09/09/2020 21:2809/09/2020 21:2809/10/2020 21:2820200463 SoCalGas Posts Notice  N/A 1 
 Other09/09/2020 14:2709/09/2020 14:2709/10/2020 14:2720200462 Southwest Gas Posts Notice  N/A 1 
 TSP Cap Offer09/09/2020 12:0009/09/2020 12:0009/15/2020 12:0020200460 Kern River - Notice of Available Apex Seasonal Capacity  N/A 1 
 Other09/08/2020 18:3409/08/2020 18:3409/09/2020 18:3420200457 Southwest Gas Posts Notice  N/A 1 
 Other09/08/2020 17:3409/08/2020 17:3409/09/2020 17:3420200456 Southwest Gas Posts Notice  N/A 1 
 Cust Srvc09/08/2020 15:5309/08/2020 15:5309/15/2020 09:0020200455 Kern River - August 2020 Final Allocation Reports  N/A 1 
 Other09/08/2020 10:0509/08/2020 10:0509/09/2020 10:0520200454 Northwest Pipeline Posts Notice  N/A 1 
 Weather09/02/2020 11:5409/02/2020 11:5409/08/2020 07:0020200451 Kern River - Hot Temperatures Forecast Through Holiday Weekend  N/A 1 
 Other09/01/2020 21:2909/01/2020 21:2909/02/2020 21:2920200449 SoCalGas Posts Notice  N/A 1 
 Cust Srvc09/01/2020 15:3709/01/2020 15:3709/07/2020 09:0020200447 Kern River - August 2020 Preliminary Allocation Reports  N/A 1 
 Other08/31/2020 17:5108/31/2020 17:5109/01/2020 17:5120200446 SoCal Gas Posts Notice  N/A 1 
 Other08/31/2020 13:4908/31/2020 13:4909/01/2020 13:4920200445 Northwest Pipeline Posts Notice  N/A 1 
 Other08/30/2020 12:5708/30/2020 12:5708/31/2020 12:5720200442 Southwest Gas Posts Notice  N/A 1 
 Pipe Cond08/30/2020 09:0008/30/2020 09:0008/31/2020 09:0020200440 Kern River - Line Pack Has Returned to Normal  N/A 1 
 Other08/29/2020 17:2008/29/2020 17:2008/30/2020 17:2020200437 SoCal Gas Posts Notice  N/A 1 
 Other08/28/2020 21:1808/28/2020 21:1808/29/2020 21:1820200436 SoCalGas Posts Notice  N/A 1 
 Other08/28/2020 17:1908/28/2020 17:1908/29/2020 17:1920200435 SoCalGas Posts Notice  N/A 1 
 Maint08/27/2020 15:2008/27/2020 15:2009/28/2020 15:2020200434 Kern River - Update to Maintenance Schedule  N/A 3 20200424
 Other08/27/2020 13:3608/27/2020 13:3608/28/2020 13:3620200433 Dominion Energy Posts Notice  N/A 1 
 Other08/27/2020 10:1608/27/2020 10:1608/28/2020 10:1620200432 Southwest Gas Posts Notice  N/A 1 
 Other08/26/2020 10:0608/26/2020 10:0608/27/2020 10:0620200429 Dominion Energy Overthrust - Posts Notice  N/A 1 
 Weather08/25/2020 14:1808/25/2020 14:1808/31/2020 09:0020200428 Kern River - Warmer Weather and High Demand Forecasted  N/A 1 
 Other08/24/2020 17:0908/24/2020 17:0908/25/2020 17:0920200427 Dominion Energy Overthrust - Posts Notice  N/A 1 
 Maint08/21/2020 17:3208/21/2020 17:3209/21/2020 17:3220200424 Kern River - Update to Maintenance Schedule  N/A 3 20200373
 Other08/21/2020 13:0408/21/2020 13:0408/22/2020 13:0420200423 Dominion Energy Overthrust Pipeline Posts Notice  N/A 1 
 Rates - Chgs08/20/2020 16:0408/20/2020 16:0409/01/2020 09:0020200422 Kern River - September 2020 Compressor Fuel and L&U  N/A 1 
 News08/20/2020 13:1408/20/2020 13:1408/27/2020 13:1420200421 New Tariff Filing, Docket No. RP20-1110  N/A 1 
 Other08/18/2020 17:1208/18/2020 17:1208/19/2020 17:1220200420 PG&E Posts Notice  N/A 1 
 Other08/17/2020 10:3608/17/2020 10:3608/18/2020 10:3620200419 PG&E Posts Notice  N/A 1 
 Other08/16/2020 08:1808/16/2020 08:1808/17/2020 08:1820200417 PG&E Posts Notice  N/A 1 
 News08/14/2020 11:3108/14/2020 11:3108/21/2020 11:3120200415 New Tariff Filing, Docket No. RP20-1099  N/A 1 
 Other08/13/2020 19:0008/13/2020 19:0008/14/2020 19:0020200414 PG&E Posts Notice  N/A 1 
 Other08/07/2020 17:1508/07/2020 17:1508/08/2020 17:1520200408 SoCalGas Posts Notice  N/A 1 
 Cust Srvc08/07/2020 10:1408/07/2020 10:1408/14/2020 09:0020200407 Kern River - July 2020 Final Allocation Reports  N/A 1 
 Other08/07/2020 09:0508/07/2020 09:0508/08/2020 09:0520200406 PG&E Posts Notice  N/A 1 
 Computer Stat08/06/2020 22:2208/06/2020 22:2208/07/2020 22:2220200405 Kern River - Real-time Measurement and SCADA Issues Resolved  N/A 2 20200404
 Computer Stat08/06/2020 18:1708/06/2020 18:1708/07/2020 18:1720200404 Kern River - Real-time Measurement and SCADA Issues  N/A 3 
 Other08/06/2020 17:1508/06/2020 17:1508/07/2020 17:1520200403 SoCalGas Posts Notice  N/A 1 
 Other08/05/2020 17:2308/05/2020 17:2308/06/2020 17:2320200401 SoCalGas Posts Notice  N/A 1 
 Other08/05/2020 10:5808/05/2020 10:5808/06/2020 10:5820200400 Dominion Energy Overthrust Pipeline Posts Notice  N/A 1 
 Other08/04/2020 21:3208/04/2020 21:3208/05/2020 21:3220200399 SoCal Gas Posts Notice  N/A 1 
 Other08/04/2020 08:4508/04/2020 08:4508/05/2020 08:4520200398 Mojave Pipeline Posts Notice  N/A 1 
 Other08/03/2020 21:3008/03/2020 21:3008/04/2020 21:3020200397 SoCal Gas Posts Notice  N/A 1 
 Other08/03/2020 16:3708/03/2020 16:3708/04/2020 16:3720200396 Southwest Gas Posts Notice  N/A 1 
 Other08/03/2020 08:2208/03/2020 08:2208/04/2020 08:2220200393 PG&E Posts Notice  N/A 1 
 Other08/02/2020 15:5608/02/2020 15:5608/03/2020 15:5620200392 Mojave Pipeline Posts Notice  N/A 1 
 Other08/02/2020 15:4808/02/2020 15:4808/03/2020 15:4820200391 PG&E Posts Notice  N/A 1 
 Other08/02/2020 14:4308/02/2020 14:4308/03/2020 14:4320200390 PG&E Posts Notice  N/A 1 
 Cust Srvc08/01/2020 10:1608/01/2020 10:1608/07/2020 09:0020200389 Kern River - July 2020 Preliminary Allocation Reports  N/A 1 
 Other07/30/2020 09:1307/30/2020 09:1307/31/2020 09:1320200388 Southwest Gas Posts Notice  N/A 1 
 TSP Cap Offer07/28/2020 12:0007/28/2020 12:0007/31/2020 12:0020200385 Kern River - Notice of Pre-Arranged Transaction  N/A 1 
 Other07/28/2020 10:5907/28/2020 10:5907/29/2020 10:5920200384 Southwest Gas Posts Notice  N/A 1 
 Other07/27/2020 10:2507/27/2020 10:2507/28/2020 10:2520200381 PG&E Posts Notice  N/A 1 
 Other07/25/2020 17:0807/25/2020 17:0807/26/2020 17:0820200380 SoCalGas Posts Notice  N/A 1 
 Other07/24/2020 17:0707/24/2020 17:0707/25/2020 17:0720200379 SoCalGas Posts Notice  N/A 1 
 Other07/21/2020 17:2407/21/2020 17:2407/22/2020 17:2420200377 SoCalGas Posts Notice  N/A 1 
 TSP Cap Offer07/21/2020 12:0007/21/2020 12:0007/24/2020 12:0020200376 Kern River - Notice of Pre-Arranged Transaction  N/A 1 
 News03/04/2020 11:3803/04/2020 11:3804/04/2020 11:3820200106 Message on Coronavirus (COVID-19)  N/A 3 
 Cap Rel12/15/2019 20:2812/15/2019 20:2801/01/2021 00:0020190712 Kern River - Capacity Release Indices  N/A 1 
 Waste Heat12/15/2019 11:3012/15/2019 11:3012/31/2020 11:3020190705 Kern River - Potential Waste Heat Recovery Facilities  N/A 1 
 Req Purch Rel Cap01/01/2020 09:0001/01/2020 09:0001/01/2021 08:5920190704 Kern River - Instructions for Requests to Purchase Releasable Capacity  N/A 1 


Notice Status Key:
1 = Initiate
2 = Supersede
3 = Terminate